sensor_id;sensor_type;location;lat;lon;timestamp;pressure;altitude;pressure_sealevel;temperature;humidity
62055;BME280;48653;51.742;-1.256;2023-12-20T00:03:47;101489.76;;;4.80;56.33
62055;BME280;48653;51.742;-1.256;2023-12-20T00:06:12;101493.35;;;4.80;56.47
62055;BME280;48653;51.742;-1.256;2023-12-20T00:08:37;101496.64;;;5.81;55.35
62055;BME280;48653;51.742;-1.256;2023-12-20T00:11:03;101496.51;;;5.57;55.25
62055;BME280;48653;51.742;-1.256;2023-12-20T00:13:28;101489.47;;;4.53;57.81
62055;BME280;48653;51.742;-1.256;2023-12-20T00:15:53;101486.90;;;5.10;57.39
62055;BME280;48653;51.742;-1.256;2023-12-20T00:18:19;101488.65;;;5.54;55.69
62055;BME280;48653;51.742;-1.256;2023-12-20T00:20:45;101482.56;;;5.02;56.76
62055;BME280;48653;51.742;-1.256;2023-12-20T00:23:10;101483.99;;;4.76;57.89
62055;BME280;48653;51.742;-1.256;2023-12-20T00:25:35;101500.11;;;4.35;59.27
62055;BME280;48653;51.742;-1.256;2023-12-20T00:28:02;101502.22;;;4.57;58.95
62055;BME280;48653;51.742;-1.256;2023-12-20T00:30:27;101498.81;;;5.03;57.50
62055;BME280;48653;51.742;-1.256;2023-12-20T00:32:52;101495.18;;;4.91;57.35
62055;BME280;48653;51.742;-1.256;2023-12-20T00:35:18;101493.36;;;4.46;58.38
62055;BME280;48653;51.742;-1.256;2023-12-20T00:37:43;101486.41;;;4.99;56.58
62055;BME280;48653;51.742;-1.256;2023-12-20T00:40:09;101484.31;;;5.05;56.87
62055;BME280;48653;51.742;-1.256;2023-12-20T00:42:33;101488.09;;;4.87;56.74
62055;BME280;48653;51.742;-1.256;2023-12-20T00:44:59;101488.93;;;5.03;56.39
62055;BME280;48653;51.742;-1.256;2023-12-20T00:47:24;101493.23;;;4.21;58.80
62055;BME280;48653;51.742;-1.256;2023-12-20T00:49:51;101492.42;;;5.32;56.10
62055;BME280;48653;51.742;-1.256;2023-12-20T00:52:14;101490.60;;;4.47;58.07
62055;BME280;48653;51.742;-1.256;2023-12-20T00:54:40;101488.46;;;5.14;56.92
62055;BME280;48653;51.742;-1.256;2023-12-20T00:57:05;101490.60;;;4.93;57.09
62055;BME280;48653;51.742;-1.256;2023-12-20T00:59:30;101492.50;;;5.03;56.82
62055;BME280;48653;51.742;-1.256;2023-12-20T01:01:56;101487.57;;;4.94;57.06
62055;BME280;48653;51.742;-1.256;2023-12-20T01:04:21;101485.25;;;4.87;57.06
62055;BME280;48653;51.742;-1.256;2023-12-20T01:06:47;101486.67;;;5.08;56.48
62055;BME280;48653;51.742;-1.256;2023-12-20T01:09:12;101484.40;;;4.71;57.35
62055;BME280;48653;51.742;-1.256;2023-12-20T01:11:37;101482.11;;;4.83;56.86
62055;BME280;48653;51.742;-1.256;2023-12-20T01:14:02;101482.55;;;4.93;56.21
62055;BME280;48653;51.742;-1.256;2023-12-20T01:16:28;101486.59;;;5.20;56.20
62055;BME280;48653;51.742;-1.256;2023-12-20T01:18:53;101490.50;;;5.26;56.33
62055;BME280;48653;51.742;-1.256;2023-12-20T01:21:18;101489.33;;;4.58;57.54
62055;BME280;48653;51.742;-1.256;2023-12-20T01:23:43;101484.14;;;5.29;55.90
62055;BME280;48653;51.742;-1.256;2023-12-20T01:26:09;101479.06;;;4.44;57.24
62055;BME280;48653;51.742;-1.256;2023-12-20T01:28:34;101481.37;;;4.77;56.88
62055;BME280;48653;51.742;-1.256;2023-12-20T01:30:59;101480.94;;;4.88;56.99
62055;BME280;48653;51.742;-1.256;2023-12-20T01:33:24;101486.41;;;4.52;57.98
62055;BME280;48653;51.742;-1.256;2023-12-20T01:35:49;101474.65;;;4.93;56.98
62055;BME280;48653;51.742;-1.256;2023-12-20T01:38:14;101471.92;;;5.23;56.07
62055;BME280;48653;51.742;-1.256;2023-12-20T01:40:39;101474.59;;;5.21;56.02
62055;BME280;48653;51.742;-1.256;2023-12-20T01:43:08;101470.74;;;4.70;57.71
62055;BME280;48653;51.742;-1.256;2023-12-20T01:45:30;101463.46;;;4.61;57.69
62055;BME280;48653;51.742;-1.256;2023-12-20T01:47:56;101465.60;;;4.91;56.97
62055;BME280;48653;51.742;-1.256;2023-12-20T01:50:20;101466.22;;;4.09;58.48
62055;BME280;48653;51.742;-1.256;2023-12-20T01:52:45;101465.81;;;4.31;59.06
62055;BME280;48653;51.742;-1.256;2023-12-20T01:55:10;101465.93;;;5.10;57.27
62055;BME280;48653;51.742;-1.256;2023-12-20T01:57:35;101467.61;;;4.65;57.85
62055;BME280;48653;51.742;-1.256;2023-12-20T02:00:01;101466.85;;;4.49;58.00
62055;BME280;48653;51.742;-1.256;2023-12-20T02:02:27;101466.57;;;4.21;59.09
62055;BME280;48653;51.742;-1.256;2023-12-20T02:04:51;101467.55;;;5.04;56.86
62055;BME280;48653;51.742;-1.256;2023-12-20T02:07:18;101466.52;;;4.84;57.34
62055;BME280;48653;51.742;-1.256;2023-12-20T02:09:42;101464.04;;;5.18;56.42
62055;BME280;48653;51.742;-1.256;2023-12-20T02:12:07;101462.53;;;4.61;57.87
62055;BME280;48653;51.742;-1.256;2023-12-20T02:14:32;101461.80;;;4.76;57.35
62055;BME280;48653;51.742;-1.256;2023-12-20T02:16:57;101463.56;;;5.38;55.93
62055;BME280;48653;51.742;-1.256;2023-12-20T02:19:23;101473.57;;;5.52;55.20
62055;BME280;48653;51.742;-1.256;2023-12-20T02:21:48;101462.02;;;5.75;54.50
62055;BME280;48653;51.742;-1.256;2023-12-20T02:24:13;101455.15;;;5.80;54.28
62055;BME280;48653;51.742;-1.256;2023-12-20T02:26:38;101453.53;;;5.64;54.62
62055;BME280;48653;51.742;-1.256;2023-12-20T02:29:03;101454.54;;;5.56;55.06
62055;BME280;48653;51.742;-1.256;2023-12-20T02:31:28;101448.41;;;5.17;55.56
62055;BME280;48653;51.742;-1.256;2023-12-20T02:33:54;101453.14;;;5.33;54.88
62055;BME280;48653;51.742;-1.256;2023-12-20T02:36:19;101454.23;;;4.83;55.90
62055;BME280;48653;51.742;-1.256;2023-12-20T02:38:44;101449.97;;;5.36;55.14
62055;BME280;48653;51.742;-1.256;2023-12-20T02:41:09;101444.34;;;5.28;55.04
62055;BME280;48653;51.742;-1.256;2023-12-20T02:43:34;101436.64;;;4.88;55.25
62055;BME280;48653;51.742;-1.256;2023-12-20T02:45:59;101435.10;;;4.58;55.87
62055;BME280;48653;51.742;-1.256;2023-12-20T02:48:24;101444.06;;;5.51;54.89
62055;BME280;48653;51.742;-1.256;2023-12-20T02:50:50;101440.40;;;5.19;54.98
62055;BME280;48653;51.742;-1.256;2023-12-20T02:53:15;101448.07;;;5.34;54.90
62055;BME280;48653;51.742;-1.256;2023-12-20T02:55:40;101449.66;;;5.26;55.27
62055;BME280;48653;51.742;-1.256;2023-12-20T02:58:06;101451.71;;;5.08;55.04
62055;BME280;48653;51.742;-1.256;2023-12-20T03:00:30;101449.01;;;5.59;53.95
62055;BME280;48653;51.742;-1.256;2023-12-20T03:02:56;101461.41;;;5.37;54.04
62055;BME280;48653;51.742;-1.256;2023-12-20T03:05:21;101461.76;;;4.84;55.83
62055;BME280;48653;51.742;-1.256;2023-12-20T03:07:46;101461.02;;;5.24;55.21
62055;BME280;48653;51.742;-1.256;2023-12-20T03:10:11;101462.31;;;5.05;56.34
62055;BME280;48653;51.742;-1.256;2023-12-20T03:12:37;101458.38;;;5.29;55.22
62055;BME280;48653;51.742;-1.256;2023-12-20T03:15:02;101459.26;;;4.70;56.44
62055;BME280;48653;51.742;-1.256;2023-12-20T03:17:27;101464.24;;;4.77;56.48
62055;BME280;48653;51.742;-1.256;2023-12-20T03:19:53;101466.28;;;4.99;56.00
62055;BME280;48653;51.742;-1.256;2023-12-20T03:22:18;101473.68;;;5.20;55.55
62055;BME280;48653;51.742;-1.256;2023-12-20T03:24:43;101477.65;;;4.92;55.88
62055;BME280;48653;51.742;-1.256;2023-12-20T03:27:08;101486.32;;;4.40;57.54
62055;BME280;48653;51.742;-1.256;2023-12-20T03:29:34;101482.33;;;4.10;58.25
62055;BME280;48653;51.742;-1.256;2023-12-20T03:31:59;101473.60;;;4.67;56.92
62055;BME280;48653;51.742;-1.256;2023-12-20T03:34:24;101473.11;;;4.60;56.96
62055;BME280;48653;51.742;-1.256;2023-12-20T03:36:49;101469.73;;;4.40;58.15
62055;BME280;48653;51.742;-1.256;2023-12-20T03:39:14;101466.84;;;4.29;58.97
62055;BME280;48653;51.742;-1.256;2023-12-20T03:41:39;101460.42;;;5.28;56.50
62055;BME280;48653;51.742;-1.256;2023-12-20T03:44:04;101459.58;;;4.87;56.62
62055;BME280;48653;51.742;-1.256;2023-12-20T03:46:29;101453.26;;;4.45;58.17
62055;BME280;48653;51.742;-1.256;2023-12-20T03:48:55;101447.56;;;4.46;57.78
62055;BME280;48653;51.742;-1.256;2023-12-20T03:51:19;101451.81;;;4.47;57.74
62055;BME280;48653;51.742;-1.256;2023-12-20T03:53:45;101446.05;;;4.73;57.19
62055;BME280;48653;51.742;-1.256;2023-12-20T03:56:10;101451.52;;;4.40;58.73
62055;BME280;48653;51.742;-1.256;2023-12-20T03:58:35;101452.40;;;4.95;57.01
62055;BME280;48653;51.742;-1.256;2023-12-20T04:01:01;101456.36;;;5.20;55.46
62055;BME280;48653;51.742;-1.256;2023-12-20T04:03:26;101452.92;;;5.38;54.96
62055;BME280;48653;51.742;-1.256;2023-12-20T04:05:51;101443.32;;;4.98;55.76
62055;BME280;48653;51.742;-1.256;2023-12-20T04:08:16;101442.71;;;4.50;56.75
62055;BME280;48653;51.742;-1.256;2023-12-20T04:10:42;101448.35;;;5.58;55.17
62055;BME280;48653;51.742;-1.256;2023-12-20T04:13:06;101433.41;;;4.72;57.17
62055;BME280;48653;51.742;-1.256;2023-12-20T04:15:32;101430.76;;;4.49;58.58
62055;BME280;48653;51.742;-1.256;2023-12-20T04:17:57;101430.91;;;4.51;58.75
62055;BME280;48653;51.742;-1.256;2023-12-20T04:20:22;101422.11;;;4.67;58.20
62055;BME280;48653;51.742;-1.256;2023-12-20T04:22:47;101422.34;;;4.17;58.67
62055;BME280;48653;51.742;-1.256;2023-12-20T04:25:13;101419.42;;;4.75;59.16
62055;BME280;48653;51.742;-1.256;2023-12-20T04:27:38;101423.39;;;4.56;59.94
62055;BME280;48653;51.742;-1.256;2023-12-20T04:30:04;101422.09;;;4.87;58.58
62055;BME280;48653;51.742;-1.256;2023-12-20T04:32:28;101433.50;;;4.28;60.01
62055;BME280;48653;51.742;-1.256;2023-12-20T04:34:54;101431.35;;;4.43;59.97
62055;BME280;48653;51.742;-1.256;2023-12-20T04:37:19;101435.74;;;4.21;62.06
62055;BME280;48653;51.742;-1.256;2023-12-20T04:39:44;101430.10;;;4.98;59.25
62055;BME280;48653;51.742;-1.256;2023-12-20T04:42:09;101439.25;;;4.86;58.72
62055;BME280;48653;51.742;-1.256;2023-12-20T04:44:35;101440.92;;;5.03;57.96
62055;BME280;48653;51.742;-1.256;2023-12-20T04:47:00;101443.81;;;4.83;59.10
62055;BME280;48653;51.742;-1.256;2023-12-20T04:49:25;101436.49;;;4.98;58.17
62055;BME280;48653;51.742;-1.256;2023-12-20T04:51:50;101432.42;;;5.13;58.12
62055;BME280;48653;51.742;-1.256;2023-12-20T04:54:15;101430.20;;;6.09;55.82
62055;BME280;48653;51.742;-1.256;2023-12-20T04:56:41;101433.21;;;5.88;56.16
62055;BME280;48653;51.742;-1.256;2023-12-20T04:59:06;101429.35;;;5.96;55.77
62055;BME280;48653;51.742;-1.256;2023-12-20T05:01:32;101424.99;;;5.79;55.37
62055;BME280;48653;51.742;-1.256;2023-12-20T05:03:57;101421.44;;;6.36;54.85
62055;BME280;48653;51.742;-1.256;2023-12-20T05:06:22;101418.12;;;6.01;54.65
62055;BME280;48653;51.742;-1.256;2023-12-20T05:08:47;101407.34;;;6.30;54.56
62055;BME280;48653;51.742;-1.256;2023-12-20T05:11:12;101398.85;;;5.58;56.62
62055;BME280;48653;51.742;-1.256;2023-12-20T05:13:37;101397.31;;;5.53;56.90
62055;BME280;48653;51.742;-1.256;2023-12-20T05:16:03;101397.39;;;5.44;57.03
62055;BME280;48653;51.742;-1.256;2023-12-20T05:18:28;101396.56;;;5.03;57.93
62055;BME280;48653;51.742;-1.256;2023-12-20T05:20:53;101392.02;;;5.27;57.50
62055;BME280;48653;51.742;-1.256;2023-12-20T05:23:18;101388.95;;;5.70;56.91
62055;BME280;48653;51.742;-1.256;2023-12-20T05:25:43;101388.87;;;5.36;57.32
62055;BME280;48653;51.742;-1.256;2023-12-20T05:28:09;101390.24;;;5.46;56.39
62055;BME280;48653;51.742;-1.256;2023-12-20T05:30:34;101396.55;;;5.23;58.24
62055;BME280;48653;51.742;-1.256;2023-12-20T05:32:59;101392.05;;;5.23;57.76
62055;BME280;48653;51.742;-1.256;2023-12-20T05:35:24;101385.74;;;5.51;56.96
62055;BME280;48653;51.742;-1.256;2023-12-20T05:37:50;101385.24;;;5.38;57.67
62055;BME280;48653;51.742;-1.256;2023-12-20T05:40:15;101390.00;;;5.57;57.55
62055;BME280;48653;51.742;-1.256;2023-12-20T05:42:41;101391.20;;;5.98;56.81
62055;BME280;48653;51.742;-1.256;2023-12-20T05:45:07;101392.39;;;5.42;56.61
62055;BME280;48653;51.742;-1.256;2023-12-20T05:47:31;101391.05;;;5.69;55.85
62055;BME280;48653;51.742;-1.256;2023-12-20T05:49:56;101384.36;;;5.63;56.60
62055;BME280;48653;51.742;-1.256;2023-12-20T05:52:21;101383.82;;;5.34;57.44
62055;BME280;48653;51.742;-1.256;2023-12-20T05:54:47;101386.03;;;5.66;57.45
62055;BME280;48653;51.742;-1.256;2023-12-20T05:59:37;101385.33;;;6.13;55.70
62055;BME280;48653;51.742;-1.256;2023-12-20T06:02:03;101391.66;;;5.71;56.40
62055;BME280;48653;51.742;-1.256;2023-12-20T06:04:27;101387.59;;;5.97;56.78
62055;BME280;48653;51.742;-1.256;2023-12-20T06:06:52;101391.29;;;5.51;57.76
62055;BME280;48653;51.742;-1.256;2023-12-20T06:09:17;101396.58;;;6.18;56.33
62055;BME280;48653;51.742;-1.256;2023-12-20T06:11:43;101388.17;;;6.27;55.72
62055;BME280;48653;51.742;-1.256;2023-12-20T06:14:08;101388.53;;;6.22;55.76
62055;BME280;48653;51.742;-1.256;2023-12-20T06:16:33;101396.39;;;6.27;55.64
62055;BME280;48653;51.742;-1.256;2023-12-20T06:18:58;101401.62;;;6.80;54.91
62055;BME280;48653;51.742;-1.256;2023-12-20T06:21:23;101395.09;;;6.61;56.00
62055;BME280;48653;51.742;-1.256;2023-12-20T06:23:48;101396.91;;;6.40;56.78
62055;BME280;48653;51.742;-1.256;2023-12-20T06:26:14;101387.43;;;6.40;56.87
62055;BME280;48653;51.742;-1.256;2023-12-20T06:28:39;101393.20;;;6.29;56.96
62055;BME280;48653;51.742;-1.256;2023-12-20T06:31:04;101388.62;;;5.55;58.20
62055;BME280;48653;51.742;-1.256;2023-12-20T06:33:30;101389.13;;;6.17;57.78
62055;BME280;48653;51.742;-1.256;2023-12-20T06:35:55;101386.66;;;5.58;59.25
62055;BME280;48653;51.742;-1.256;2023-12-20T06:38:20;101375.18;;;6.29;56.47
62055;BME280;48653;51.742;-1.256;2023-12-20T06:40:46;101376.98;;;6.10;56.86
62055;BME280;48653;51.742;-1.256;2023-12-20T06:43:10;101379.04;;;6.00;57.31
62055;BME280;48653;51.742;-1.256;2023-12-20T06:45:35;101381.71;;;6.34;56.60
62055;BME280;48653;51.742;-1.256;2023-12-20T06:48:01;101381.10;;;6.64;55.83
62055;BME280;48653;51.742;-1.256;2023-12-20T06:50:26;101381.20;;;5.98;57.85
62055;BME280;48653;51.742;-1.256;2023-12-20T06:52:51;101387.66;;;7.15;55.09
62055;BME280;48653;51.742;-1.256;2023-12-20T06:55:16;101389.59;;;6.99;55.61
62055;BME280;48653;51.742;-1.256;2023-12-20T06:57:43;101378.49;;;6.57;56.45
62055;BME280;48653;51.742;-1.256;2023-12-20T07:00:08;101370.03;;;6.94;55.77
62055;BME280;48653;51.742;-1.256;2023-12-20T07:02:32;101356.49;;;6.42;56.13
62055;BME280;48653;51.742;-1.256;2023-12-20T07:04:58;101346.81;;;7.46;54.72
62055;BME280;48653;51.742;-1.256;2023-12-20T07:07:23;101338.24;;;7.49;54.50
62055;BME280;48653;51.742;-1.256;2023-12-20T07:09:49;101323.19;;;7.08;55.15
62055;BME280;48653;51.742;-1.256;2023-12-20T07:12:14;101315.99;;;7.08;56.48
62055;BME280;48653;51.742;-1.256;2023-12-20T07:14:39;101317.98;;;6.71;57.29
62055;BME280;48653;51.742;-1.256;2023-12-20T07:17:04;101315.78;;;6.11;57.36
62055;BME280;48653;51.742;-1.256;2023-12-20T07:19:30;101314.05;;;7.11;56.83
62055;BME280;48653;51.742;-1.256;2023-12-20T07:21:55;101324.68;;;6.72;57.05
62055;BME280;48653;51.742;-1.256;2023-12-20T07:24:20;101328.96;;;6.25;58.03
62055;BME280;48653;51.742;-1.256;2023-12-20T07:26:45;101332.88;;;6.67;57.61
62055;BME280;48653;51.742;-1.256;2023-12-20T07:29:11;101339.17;;;6.78;57.22
62055;BME280;48653;51.742;-1.256;2023-12-20T07:31:36;101343.74;;;6.45;57.71
62055;BME280;48653;51.742;-1.256;2023-12-20T07:34:01;101349.33;;;6.01;59.53
62055;BME280;48653;51.742;-1.256;2023-12-20T07:36:26;101352.94;;;6.74;57.60
62055;BME280;48653;51.742;-1.256;2023-12-20T07:38:51;101360.56;;;6.47;58.45
62055;BME280;48653;51.742;-1.256;2023-12-20T07:41:16;101357.06;;;6.35;59.17
62055;BME280;48653;51.742;-1.256;2023-12-20T07:43:41;101346.17;;;6.34;58.20
62055;BME280;48653;51.742;-1.256;2023-12-20T07:46:07;101359.12;;;5.80;59.97
62055;BME280;48653;51.742;-1.256;2023-12-20T07:48:34;101371.19;;;7.12;57.00
62055;BME280;48653;51.742;-1.256;2023-12-20T07:50:57;101378.83;;;6.98;56.89
62055;BME280;48653;51.742;-1.256;2023-12-20T07:53:22;101383.57;;;7.00;56.45
62055;BME280;48653;51.742;-1.256;2023-12-20T07:55:48;101391.73;;;6.43;57.56
62055;BME280;48653;51.742;-1.256;2023-12-20T07:58:14;101397.98;;;6.18;59.28
62055;BME280;48653;51.742;-1.256;2023-12-20T08:00:39;101397.53;;;5.93;59.99
62055;BME280;48653;51.742;-1.256;2023-12-20T08:03:04;101393.30;;;6.84;58.01
62055;BME280;48653;51.742;-1.256;2023-12-20T08:05:29;101397.57;;;6.18;58.81
62055;BME280;48653;51.742;-1.256;2023-12-20T08:07:54;101395.25;;;6.06;59.61
62055;BME280;48653;51.742;-1.256;2023-12-20T08:10:19;101385.78;;;6.66;58.99
62055;BME280;48653;51.742;-1.256;2023-12-20T08:12:45;101397.07;;;6.12;59.78
62055;BME280;48653;51.742;-1.256;2023-12-20T08:15:10;101397.60;;;7.00;58.15
62055;BME280;48653;51.742;-1.256;2023-12-20T08:17:35;101401.27;;;6.34;60.08
62055;BME280;48653;51.742;-1.256;2023-12-20T08:20:00;101401.80;;;7.16;57.51
62055;BME280;48653;51.742;-1.256;2023-12-20T08:22:25;101411.76;;;7.44;56.87
62055;BME280;48653;51.742;-1.256;2023-12-20T08:24:51;101412.63;;;7.15;58.53
62055;BME280;48653;51.742;-1.256;2023-12-20T08:27:15;101411.46;;;7.24;58.35
62055;BME280;48653;51.742;-1.256;2023-12-20T08:29:41;101405.43;;;6.69;58.74
62055;BME280;48653;51.742;-1.256;2023-12-20T08:32:06;101411.95;;;6.86;58.45
62055;BME280;48653;51.742;-1.256;2023-12-20T08:34:31;101400.26;;;7.09;58.57
62055;BME280;48653;51.742;-1.256;2023-12-20T08:36:56;101392.71;;;7.32;57.95
62055;BME280;48653;51.742;-1.256;2023-12-20T08:39:21;101386.09;;;7.07;58.25
62055;BME280;48653;51.742;-1.256;2023-12-20T08:41:46;101386.44;;;7.18;57.47
62055;BME280;48653;51.742;-1.256;2023-12-20T08:44:11;101373.90;;;8.18;56.70
62055;BME280;48653;51.742;-1.256;2023-12-20T08:46:37;101381.06;;;7.04;58.50
62055;BME280;48653;51.742;-1.256;2023-12-20T08:49:04;101384.37;;;7.54;58.47
62055;BME280;48653;51.742;-1.256;2023-12-20T08:51:28;101384.51;;;6.96;58.74
62055;BME280;48653;51.742;-1.256;2023-12-20T08:53:53;101384.00;;;6.36;61.13
62055;BME280;48653;51.742;-1.256;2023-12-20T08:56:19;101385.87;;;5.94;61.67
62055;BME280;48653;51.742;-1.256;2023-12-20T08:58:44;101378.26;;;7.20;59.33
62055;BME280;48653;51.742;-1.256;2023-12-20T09:01:09;101372.22;;;7.51;57.38
62055;BME280;48653;51.742;-1.256;2023-12-20T09:03:33;101364.25;;;7.32;58.46
62055;BME280;48653;51.742;-1.256;2023-12-20T09:05:59;101365.51;;;7.60;57.47
62055;BME280;48653;51.742;-1.256;2023-12-20T09:08:24;101370.05;;;7.17;59.13
62055;BME280;48653;51.742;-1.256;2023-12-20T09:10:49;101371.26;;;7.82;59.08
62055;BME280;48653;51.742;-1.256;2023-12-20T09:13:15;101375.67;;;7.68;58.61
62055;BME280;48653;51.742;-1.256;2023-12-20T09:15:40;101380.31;;;7.37;59.08
62055;BME280;48653;51.742;-1.256;2023-12-20T09:18:06;101385.44;;;7.66;58.36
62055;BME280;48653;51.742;-1.256;2023-12-20T09:20:33;101383.81;;;7.49;58.68
62055;BME280;48653;51.742;-1.256;2023-12-20T09:22:56;101381.30;;;7.82;58.17
62055;BME280;48653;51.742;-1.256;2023-12-20T09:25:20;101382.64;;;7.64;58.97
62055;BME280;48653;51.742;-1.256;2023-12-20T09:27:46;101387.56;;;7.68;58.56
62055;BME280;48653;51.742;-1.256;2023-12-20T09:30:12;101393.68;;;7.50;59.18
62055;BME280;48653;51.742;-1.256;2023-12-20T09:32:36;101388.72;;;7.73;58.22
62055;BME280;48653;51.742;-1.256;2023-12-20T09:35:01;101389.30;;;7.51;58.41
62055;BME280;48653;51.742;-1.256;2023-12-20T09:37:27;101383.37;;;7.98;57.65
62055;BME280;48653;51.742;-1.256;2023-12-20T09:39:51;101389.13;;;7.68;58.03
62055;BME280;48653;51.742;-1.256;2023-12-20T09:42:23;101387.31;;;7.79;58.02
62055;BME280;48653;51.742;-1.256;2023-12-20T09:44:41;101378.64;;;7.39;59.37
62055;BME280;48653;51.742;-1.256;2023-12-20T09:47:06;101368.46;;;8.70;56.65
62055;BME280;48653;51.742;-1.256;2023-12-20T09:49:33;101370.11;;;7.72;58.19
62055;BME280;48653;51.742;-1.256;2023-12-20T09:51:57;101370.97;;;7.33;59.35
62055;BME280;48653;51.742;-1.256;2023-12-20T09:54:23;101365.31;;;8.03;56.56
62055;BME280;48653;51.742;-1.256;2023-12-20T09:56:48;101375.66;;;8.12;56.79
62055;BME280;48653;51.742;-1.256;2023-12-20T09:59:13;101372.59;;;7.50;57.92
62055;BME280;48653;51.742;-1.256;2023-12-20T10:01:40;101374.87;;;7.54;58.09
62055;BME280;48653;51.742;-1.256;2023-12-20T10:04:06;101378.59;;;7.89;56.69
62055;BME280;48653;51.742;-1.256;2023-12-20T10:06:29;101377.00;;;7.43;58.17
62055;BME280;48653;51.742;-1.256;2023-12-20T10:08:54;101378.36;;;7.53;59.23
62055;BME280;48653;51.742;-1.256;2023-12-20T10:11:19;101381.22;;;7.68;58.97
62055;BME280;48653;51.742;-1.256;2023-12-20T10:13:47;101387.39;;;8.32;57.27
62055;BME280;48653;51.742;-1.256;2023-12-20T10:16:10;101392.60;;;7.80;58.33
62055;BME280;48653;51.742;-1.256;2023-12-20T10:18:35;101393.96;;;7.93;58.04
62055;BME280;48653;51.742;-1.256;2023-12-20T10:21:00;101397.86;;;8.33;57.21
62055;BME280;48653;51.742;-1.256;2023-12-20T10:23:25;101400.40;;;7.71;58.81
62055;BME280;48653;51.742;-1.256;2023-12-20T10:25:56;101399.21;;;7.89;58.61
62055;BME280;48653;51.742;-1.256;2023-12-20T10:28:16;101387.29;;;7.33;60.22
62055;BME280;48653;51.742;-1.256;2023-12-20T10:30:41;101389.85;;;6.95;61.56
62055;BME280;48653;51.742;-1.256;2023-12-20T10:33:06;101383.20;;;7.10;61.96
62055;BME280;48653;51.742;-1.256;2023-12-20T10:35:31;101381.76;;;7.07;61.07
62055;BME280;48653;51.742;-1.256;2023-12-20T10:37:57;101385.76;;;8.24;59.14
62055;BME280;48653;51.742;-1.256;2023-12-20T10:40:22;101382.25;;;7.17;60.79
62055;BME280;48653;51.742;-1.256;2023-12-20T10:42:48;101363.12;;;7.99;59.84
62055;BME280;48653;51.742;-1.256;2023-12-20T10:45:12;101348.74;;;7.63;60.06
62055;BME280;48653;51.742;-1.256;2023-12-20T10:47:39;101331.51;;;7.89;59.70
62055;BME280;48653;51.742;-1.256;2023-12-20T10:50:05;101333.63;;;7.38;60.33
62055;BME280;48653;51.742;-1.256;2023-12-20T10:52:29;101320.43;;;7.24;60.27
62055;BME280;48653;51.742;-1.256;2023-12-20T10:54:53;101318.71;;;6.97;60.82
62055;BME280;48653;51.742;-1.256;2023-12-20T10:57:19;101306.82;;;7.31;61.62
62055;BME280;48653;51.742;-1.256;2023-12-20T10:59:45;101301.16;;;7.51;59.90
62055;BME280;48653;51.742;-1.256;2023-12-20T11:02:09;101296.42;;;8.08;59.02
62055;BME280;48653;51.742;-1.256;2023-12-20T11:04:40;101301.89;;;7.74;59.45
62055;BME280;48653;51.742;-1.256;2023-12-20T11:07:06;101286.85;;;8.15;57.99
62055;BME280;48653;51.742;-1.256;2023-12-20T11:09:25;101285.00;;;8.00;58.11
62055;BME280;48653;51.742;-1.256;2023-12-20T11:11:59;101279.14;;;7.56;59.75
62055;BME280;48653;51.742;-1.256;2023-12-20T11:14:18;101279.97;;;7.65;59.71
62055;BME280;48653;51.742;-1.256;2023-12-20T11:16:41;101283.19;;;8.19;58.56
62055;BME280;48653;51.742;-1.256;2023-12-20T11:19:05;101283.09;;;7.96;59.53
62055;BME280;48653;51.742;-1.256;2023-12-20T11:21:29;101285.36;;;7.91;58.49
62055;BME280;48653;51.742;-1.256;2023-12-20T11:23:54;101281.73;;;8.59;56.77
62055;BME280;48653;51.742;-1.256;2023-12-20T11:26:26;101268.35;;;7.97;57.85
62055;BME280;48653;51.742;-1.256;2023-12-20T11:28:45;101267.53;;;8.87;55.95
62055;BME280;48653;51.742;-1.256;2023-12-20T11:31:14;101264.37;;;8.57;56.79
62055;BME280;48653;51.742;-1.256;2023-12-20T11:36:00;101246.33;;;8.00;58.72
62055;BME280;48653;51.742;-1.256;2023-12-20T11:38:26;101239.74;;;7.62;58.68
62055;BME280;48653;51.742;-1.256;2023-12-20T11:40:51;101243.96;;;7.67;59.18
62055;BME280;48653;51.742;-1.256;2023-12-20T11:43:30;101236.36;;;7.72;59.33
62055;BME280;48653;51.742;-1.256;2023-12-20T11:45:49;101226.58;;;7.67;59.28
62055;BME280;48653;51.742;-1.256;2023-12-20T11:48:07;101224.43;;;8.25;58.26
62055;BME280;48653;51.742;-1.256;2023-12-20T11:50:31;101222.47;;;8.17;58.14
62055;BME280;48653;51.742;-1.256;2023-12-20T11:52:56;101226.34;;;8.19;58.19
62055;BME280;48653;51.742;-1.256;2023-12-20T11:55:21;101222.08;;;8.37;57.14
62055;BME280;48653;51.742;-1.256;2023-12-20T11:57:47;101213.20;;;8.40;57.39
62055;BME280;48653;51.742;-1.256;2023-12-20T12:00:12;101204.34;;;8.59;56.61
62055;BME280;48653;51.742;-1.256;2023-12-20T12:02:36;101209.72;;;8.66;55.95
62055;BME280;48653;51.742;-1.256;2023-12-20T12:05:01;101197.64;;;8.96;55.12
62055;BME280;48653;51.742;-1.256;2023-12-20T12:07:26;101187.83;;;9.06;55.83
62055;BME280;48653;51.742;-1.256;2023-12-20T12:09:51;101197.85;;;8.45;56.21
62055;BME280;48653;51.742;-1.256;2023-12-20T12:12:17;101198.49;;;9.20;55.99
62055;BME280;48653;51.742;-1.256;2023-12-20T12:14:42;101189.92;;;8.39;56.67
62055;BME280;48653;51.742;-1.256;2023-12-20T12:17:10;101199.02;;;8.37;58.22
62055;BME280;48653;51.742;-1.256;2023-12-20T12:19:32;101182.46;;;8.19;58.69
62055;BME280;48653;51.742;-1.256;2023-12-20T12:22:05;101167.57;;;8.73;57.41
62055;BME280;48653;51.742;-1.256;2023-12-20T12:24:22;101170.29;;;8.22;58.62
62055;BME280;48653;51.742;-1.256;2023-12-20T12:26:50;101170.67;;;7.88;59.35
62055;BME280;48653;51.742;-1.256;2023-12-20T12:29:12;101160.76;;;8.55;57.86
62055;BME280;48653;51.742;-1.256;2023-12-20T12:31:37;101156.76;;;7.95;59.32
62055;BME280;48653;51.742;-1.256;2023-12-20T12:34:02;101140.10;;;8.33;58.09
62055;BME280;48653;51.742;-1.256;2023-12-20T12:36:28;101140.55;;;7.70;59.53
62055;BME280;48653;51.742;-1.256;2023-12-20T12:38:52;101138.47;;;8.64;58.14
62055;BME280;48653;51.742;-1.256;2023-12-20T12:41:18;101124.32;;;8.27;58.75
62055;BME280;48653;51.742;-1.256;2023-12-20T12:43:43;101110.40;;;8.91;57.54
62055;BME280;48653;51.742;-1.256;2023-12-20T12:46:08;101116.60;;;9.04;57.12